Terminal Aerodrome Forecast
Issued by NWS

Home | Current Version | Previous Version | Text Only | Print | Product List | Glossary On
Versions: 1 2 3 4 5 6 7 8 9 10 11 12 13 14 15 16
887
FTUS41 KPBZ 072336
TAFZZV
TAF
KZZV 072336Z 0800/0824 18005KT P6SM BKN120
     FM081000 16005KT 3SM -SNRA OVC020
     FM081200 16005KT 2SM -SN BR OVC008
     FM081800 24005KT 5SM -RASN BKN015=

USA.gov is the U.S. government's official web portal to all federal, state and local government web resources and services.